Time;durP1;ratioP1;P1;durP2;ratioP2;P2;SDS_P1;SDS_P2;PMS_P1;PMS_P2;Temp;Humidity;BMP_temperature;BMP_pressure;BME280_temperature;BME280_humidity;BME280_pressure;Samples;Min_cycle;Max_cycle;Signal;HPM_P1;HPM_P2
2022/02/08 00:02:12;;;;;;;7.20;2.60;;;3.80;99.90;;;;;;5042567;28;20211;-49
2022/02/08 00:04:39;;;;;;;4.10;2.00;;;3.90;99.90;;;;;;5043779;28;20245;-48
2022/02/08 00:07:08;;;;;;;9.30;2.40;;;3.90;99.90;;;;;;5044897;28;20553;-48
2022/02/08 00:09:37;;;;;;;4.90;2.35;;;3.80;99.90;;;;;;5043451;28;20245;-50
2022/02/08 00:12:09;;;;;;;6.32;2.22;;;3.90;99.90;;;;;;5044799;28;20479;-48
2022/02/08 00:14:36;;;;;;;8.40;2.45;;;3.90;99.90;;;;;;5044265;28;20202;-47
2022/02/08 00:17:03;;;;;;;7.05;2.00;;;3.80;99.90;;;;;;5043500;28;20519;-46
2022/02/08 00:19:32;;;;;;;3.78;1.52;;;3.90;99.90;;;;;;5043530;28;20226;-51
2022/02/08 00:21:59;;;;;;;9.20;2.75;;;3.80;99.90;;;;;;5045281;28;20201;-46
2022/02/08 00:24:26;;;;;;;12.85;2.10;;;3.90;99.90;;;;;;5043871;28;20385;-47
2022/02/08 00:26:54;;;;;;;4.43;1.42;;;3.80;99.90;;;;;;5042971;28;20203;-46
2022/02/08 00:29:22;;;;;;;8.02;1.75;;;3.90;99.90;;;;;;5042375;28;20229;-47
2022/02/08 00:31:50;;;;;;;5.90;1.92;;;3.90;99.90;;;;;;5045093;28;20211;-48
2022/02/08 00:34:18;;;;;;;4.78;1.48;;;3.80;99.90;;;;;;5043130;28;20510;-49
2022/02/08 00:36:45;;;;;;;5.63;1.77;;;3.80;99.90;;;;;;5047394;28;20233;-49
2022/02/08 00:39:13;;;;;;;3.17;1.45;;;3.80;99.90;;;;;;5045742;28;20277;-47
2022/02/08 00:41:41;;;;;;;10.93;1.90;;;3.80;99.90;;;;;;5044460;28;20495;-50
2022/02/08 00:44:14;;;;;;;6.85;2.25;;;3.70;99.90;;;;;;5043161;28;20244;-47
2022/02/08 00:49:17;;;;;;;6.75;2.35;;;3.60;99.90;;;;;;5039944;28;20225;-51
2022/02/08 00:51:54;;;;;;;9.43;2.30;;;3.60;99.90;;;;;;5043831;28;20220;-46
2022/02/08 00:54:22;;;;;;;4.68;1.45;;;3.50;99.90;;;;;;5040962;28;20552;-48
2022/02/08 00:56:49;;;;;;;7.40;2.35;;;3.50;99.90;;;;;;5043253;28;20229;-50
2022/02/08 00:59:17;;;;;;;11.05;2.40;;;3.50;99.90;;;;;;5040170;28;20456;-48
2022/02/08 01:01:45;;;;;;;6.63;2.90;;;3.40;99.90;;;;;;5046974;28;20420;-50
2022/02/08 01:04:12;;;;;;;11.18;2.15;;;3.40;99.90;;;;;;5047620;28;20205;-53
2022/02/08 01:06:42;;;;;;;9.20;1.60;;;3.40;99.90;;;;;;5045602;28;20201;-50
2022/02/08 01:09:14;;;;;;;6.10;1.83;;;3.40;99.90;;;;;;5043996;28;20224;-52
2022/02/08 01:11:44;;;;;;;5.93;2.75;;;3.40;99.90;;;;;;5040950;28;20204;-53
2022/02/08 01:14:13;;;;;;;7.13;2.25;;;3.40;99.90;;;;;;5045199;28;20281;-49
2022/02/08 01:16:40;;;;;;;9.77;1.92;;;3.40;99.90;;;;;;5043831;28;20217;-48
2022/02/08 01:19:08;;;;;;;9.75;2.40;;;3.30;99.90;;;;;;5043791;28;20556;-47
2022/02/08 01:21:36;;;;;;;10.25;2.53;;;3.20;99.90;;;;;;5042437;28;20244;-49
2022/02/08 01:24:04;;;;;;;8.52;2.00;;;3.10;99.90;;;;;;5043770;28;20205;-47
2022/02/08 01:26:33;;;;;;;7.57;2.35;;;3.10;99.90;;;;;;5042274;28;20208;-51
2022/02/08 01:29:06;;;;;;;5.03;2.05;;;3.20;99.90;;;;;;5043606;28;20226;-48
2022/02/08 01:31:38;;;;;;;8.15;3.00;;;3.00;99.90;;;;;;5039415;28;20215;-48
2022/02/08 01:34:13;;;;;;;6.72;2.25;;;2.80;99.90;;;;;;5044006;28;20214;-50
2022/02/08 01:36:54;;;;;;;11.20;2.35;;;2.80;99.90;;;;;;5041508;28;20225;-49
2022/02/08 01:39:30;;;;;;;2.33;1.77;;;2.80;99.90;;;;;;5039185;28;20224;-50
2022/02/08 01:45:03;;;;;;;8.52;3.45;;;2.60;99.90;;;;;;5043362;28;20205;-51
2022/02/08 01:48:27;;;;;;;22.67;3.15;;;2.60;99.90;;;;;;5041614;28;20212;-46
2022/02/08 01:50:17;;;;;;;10.07;3.03;;;2.60;99.90;;;;;;5029178;28;20217;-48
2022/02/08 01:52:45;;;;;;;9.65;2.03;;;2.50;99.90;;;;;;5042780;28;20256;-47
2022/02/08 01:55:14;;;;;;;7.18;1.92;;;2.40;99.90;;;;;;5042406;28;20216;-46
2022/02/08 01:57:41;;;;;;;14.18;2.20;;;2.30;99.90;;;;;;5042153;28;20226;-48
2022/02/08 02:00:10;;;;;;;5.30;2.50;;;2.30;99.90;;;;;;5042481;28;20216;-45
2022/02/08 02:02:41;;;;;;;10.23;2.90;;;2.30;99.90;;;;;;5042594;28;20364;-49
2022/02/08 02:05:09;;;;;;;3.70;1.95;;;2.30;99.90;;;;;;5042794;28;20200;-49
2022/02/08 02:07:46;;;;;;;6.47;3.38;;;2.30;99.90;;;;;;5042231;28;20424;-48
2022/02/08 02:10:19;;;;;;;6.30;2.58;;;2.40;99.90;;;;;;5041035;28;20258;-49
2022/02/08 02:12:59;;;;;;;4.20;2.03;;;2.60;99.90;;;;;;5042327;28;20204;-48
2022/02/08 02:15:28;;;;;;;9.27;2.42;;;2.70;99.90;;;;;;5040662;28;20243;-48
2022/02/08 02:17:56;;;;;;;2.70;2.03;;;2.80;99.90;;;;;;5043500;28;20207;-48
2022/02/08 02:20:23;;;;;;;11.57;2.58;;;2.80;99.90;;;;;;5037613;28;20228;-49
2022/02/08 02:22:51;;;;;;;7.85;1.98;;;2.80;99.90;;;;;;5043186;28;20201;-46
2022/02/08 02:25:30;;;;;;;9.13;1.90;;;2.90;99.90;;;;;;5039145;28;20205;-50
2022/02/08 02:28:01;;;;;;;7.15;2.15;;;2.90;99.90;;;;;;5041888;28;20209;-49
2022/02/08 02:30:31;;;;;;;15.52;2.90;;;2.90;99.90;;;;;;5041596;28;20288;-48
2022/02/08 02:32:59;;;;;;;6.63;2.15;;;2.80;99.90;;;;;;5043123;28;20259;-50
2022/02/08 02:35:28;;;;;;;5.10;2.63;;;2.80;99.90;;;;;;5042174;28;20492;-49
2022/02/08 02:37:59;;;;;;;9.35;2.83;;;2.90;99.90;;;;;;5042905;28;20247;-49
2022/02/08 02:40:28;;;;;;;7.57;2.22;;;3.00;99.90;;;;;;5041654;28;20221;-47
2022/02/08 02:42:56;;;;;;;11.88;2.67;;;3.10;99.90;;;;;;5043061;28;20197;-49
2022/02/08 02:45:24;;;;;;;8.40;2.75;;;3.10;99.90;;;;;;5041865;28;20203;-50
2022/02/08 02:47:52;;;;;;;5.47;2.58;;;3.10;99.90;;;;;;5043080;28;20247;-47
2022/02/08 02:50:22;;;;;;;2.33;1.38;;;3.20;99.90;;;;;;5040158;28;20216;-48
2022/02/08 02:52:49;;;;;;;9.38;2.55;;;3.20;99.90;;;;;;5046844;28;20272;-48
2022/02/08 02:55:17;;;;;;;3.33;2.40;;;3.20;99.90;;;;;;5047536;28;20203;-49
2022/02/08 02:57:48;;;;;;;6.72;2.50;;;3.20;99.90;;;;;;5052548;28;20225;-50
2022/02/08 03:00:36;;;;;;;4.45;2.10;;;3.30;99.90;;;;;;5046835;28;20218;-50
2022/02/08 03:19:27;;;;;;;7.13;4.15;;;3.40;99.90;;;;;;5044008;28;20232;-47
2022/02/08 03:21:55;;;;;;;5.47;2.25;;;3.40;99.90;;;;;;5046728;28;20203;-49
2022/02/08 03:24:22;;;;;;;9.07;2.60;;;3.40;99.90;;;;;;5045135;28;20198;-49
2022/02/08 03:26:49;;;;;;;17.88;2.95;;;3.40;99.90;;;;;;5046513;28;20272;-47
2022/02/08 03:29:16;;;;;;;9.18;2.30;;;3.50;99.90;;;;;;5042162;28;20222;-47
2022/02/08 03:31:43;;;;;;;7.10;3.08;;;3.40;99.90;;;;;;5041796;28;20586;-49
2022/02/08 03:34:11;;;;;;;4.90;2.47;;;3.40;99.90;;;;;;5046460;28;20454;-47
2022/02/08 03:36:38;;;;;;;4.38;2.25;;;3.40;99.90;;;;;;5042614;28;20233;-48
2022/02/08 03:39:19;;;;;;;7.80;2.55;;;3.40;99.90;;;;;;5047453;28;20224;-49
2022/02/08 03:41:51;;;;;;;4.45;1.83;;;3.40;99.90;;;;;;5047412;28;20205;-48
2022/02/08 03:44:23;;;;;;;10.45;2.47;;;3.50;99.90;;;;;;5043367;28;20207;-47
2022/02/08 03:46:51;;;;;;;7.35;2.00;;;3.50;99.90;;;;;;5048973;28;20206;-50
2022/02/08 03:49:18;;;;;;;5.90;3.60;;;3.40;99.90;;;;;;5046725;28;20258;-47
2022/02/08 03:51:51;;;;;;;7.15;1.67;;;3.40;99.90;;;;;;5047050;28;20202;-49
2022/02/08 03:54:19;;;;;;;6.38;2.50;;;3.50;99.90;;;;;;5041087;28;20221;-49
2022/02/08 03:56:47;;;;;;;12.32;2.92;;;3.50;99.90;;;;;;5047753;28;20268;-51
2022/02/08 03:59:15;;;;;;;3.83;1.60;;;3.60;99.90;;;;;;5047070;28;20224;-47
2022/02/08 04:07:12;;;;;;;6.07;2.65;;;3.60;99.90;;;;;;5046714;28;20212;-47
2022/02/08 04:09:39;;;;;;;7.65;3.03;;;3.70;99.90;;;;;;5042642;28;20230;-47
2022/02/08 04:12:14;;;;;;;4.93;2.60;;;3.60;99.90;;;;;;5046045;28;20202;-46
2022/02/08 04:17:39;;;;;;;5.55;2.55;;;3.60;99.90;;;;;;5043033;28;20267;-46
2022/02/08 04:36:43;;;;;;;3.08;2.22;;;3.90;99.90;;;;;;5057699;28;20209;-50
2022/02/08 04:39:40;;;;;;;5.22;2.17;;;3.90;99.90;;;;;;5059950;28;20240;-50
2022/02/08 04:42:21;;;;;;;6.32;1.67;;;3.90;99.90;;;;;;5060508;28;20198;-47
2022/02/08 04:47:29;;;;;;;8.55;3.60;;;3.90;99.90;;;;;;5059919;28;20208;-48
2022/02/08 04:49:56;;;;;;;7.03;1.75;;;3.90;99.90;;;;;;5059919;28;20228;-46
2022/02/08 04:52:26;;;;;;;13.27;3.95;;;3.90;99.90;;;;;;5059593;28;20456;-46
2022/02/08 04:55:47;;;;;;;7.60;2.53;;;3.90;99.90;;;;;;5060347;28;20220;-49
2022/02/08 04:57:49;;;;;;;7.57;4.05;;;3.90;99.90;;;;;;5050145;28;20243;-48
2022/02/08 05:00:32;;;;;;;8.88;4.38;;;4.00;99.90;;;;;;5059139;28;20321;-48
2022/02/08 05:29:05;;;;;;;5.57;2.75;;;3.60;99.90;;;;;;5059094;28;20205;-51
2022/02/08 05:49:07;;;;;;;4.85;3.03;;;3.90;99.90;;;;;;5060073;28;20220;-49
2022/02/08 05:51:57;;;;;;;7.70;2.75;;;4.00;99.90;;;;;;5060267;28;20198;-47
2022/02/08 05:54:26;;;;;;;5.50;4.95;;;3.90;99.90;;;;;;5056956;28;20210;-48
2022/02/08 05:56:54;;;;;;;4.07;2.65;;;3.90;99.90;;;;;;5058746;28;20250;-46
2022/02/08 05:59:22;;;;;;;4.47;2.55;;;3.90;99.90;;;;;;5053904;28;20478;-49
2022/02/08 06:01:50;;;;;;;3.17;2.83;;;3.90;99.90;;;;;;5059015;28;20252;-46
2022/02/08 06:04:17;;;;;;;7.75;3.40;;;4.00;99.90;;;;;;5058871;28;20207;-48
2022/02/08 06:06:46;;;;;;;8.45;4.35;;;4.00;99.90;;;;;;5058189;28;20203;-50
2022/02/08 06:09:14;;;;;;;4.50;2.97;;;4.00;99.90;;;;;;5058541;28;20467;-47
2022/02/08 06:11:46;;;;;;;9.50;4.80;;;4.10;99.90;;;;;;5057990;28;20551;-47
2022/02/08 06:14:14;;;;;;;9.38;3.88;;;4.20;99.90;;;;;;5058683;28;20420;-48
2022/02/08 06:16:41;;;;;;;6.60;2.90;;;4.10;99.90;;;;;;5058582;28;20426;-53
2022/02/08 06:19:09;;;;;;;2.92;2.67;;;3.90;99.90;;;;;;5055674;28;20220;-47
2022/02/08 06:21:36;;;;;;;7.78;2.78;;;4.00;99.90;;;;;;5056946;28;20532;-46
2022/02/08 06:24:04;;;;;;;10.00;3.40;;;4.00;99.90;;;;;;5057248;28;20233;-50
2022/02/08 06:26:31;;;;;;;4.15;2.53;;;4.00;99.90;;;;;;5060493;28;20202;-51
2022/02/08 06:29:08;;;;;;;10.25;3.70;;;4.10;99.90;;;;;;5062072;28;20256;-50
2022/02/08 06:31:35;;;;;;;8.77;3.15;;;4.20;99.90;;;;;;5061698;28;20441;-51
2022/02/08 06:34:03;;;;;;;5.35;2.58;;;4.40;99.90;;;;;;5061684;28;20198;-51
2022/02/08 06:36:31;;;;;;;8.63;3.00;;;4.40;99.90;;;;;;5059947;28;20282;-47
2022/02/08 06:38:58;;;;;;;7.95;3.33;;;4.40;99.90;;;;;;5064077;28;20460;-46
2022/02/08 06:41:25;;;;;;;6.65;2.90;;;4.50;99.90;;;;;;5065219;28;20210;-47
2022/02/08 06:43:53;;;;;;;5.15;2.67;;;4.30;99.90;;;;;;5067137;28;20244;-48
2022/02/08 06:46:20;;;;;;;6.20;2.85;;;4.50;99.90;;;;;;5063086;28;20206;-46
2022/02/08 06:48:47;;;;;;;10.48;2.28;;;4.40;99.90;;;;;;5062235;28;20240;-47
2022/02/08 06:51:14;;;;;;;6.10;3.47;;;4.50;99.90;;;;;;5062045;28;20205;-48
2022/02/08 06:53:42;;;;;;;6.28;2.58;;;4.70;99.90;;;;;;5062098;28;20485;-46
2022/02/08 06:56:09;;;;;;;7.30;3.70;;;4.70;99.90;;;;;;5061966;28;20252;-48
2022/02/08 06:58:48;;;;;;;3.95;2.50;;;4.80;99.90;;;;;;5062002;28;20230;-46
2022/02/08 07:01:18;;;;;;;4.20;3.40;;;4.80;99.90;;;;;;5062572;28;20207;-51
2022/02/08 07:03:48;;;;;;;7.25;2.58;;;4.80;99.90;;;;;;5065251;28;20195;-52
2022/02/08 07:06:15;;;;;;;6.20;3.28;;;4.90;99.90;;;;;;5064830;28;20211;-48
2022/02/08 07:08:42;;;;;;;4.82;2.78;;;5.00;99.90;;;;;;5062394;28;20246;-53
2022/02/08 07:11:15;;;;;;;10.13;3.53;;;5.10;99.90;;;;;;5061664;28;20248;-53
2022/02/08 07:13:44;;;;;;;5.07;2.47;;;5.00;99.90;;;;;;5062485;28;20419;-48
2022/02/08 07:16:12;;;;;;;4.55;2.35;;;5.00;99.90;;;;;;5062592;28;20225;-51
2022/02/08 07:18:40;;;;;;;6.90;2.63;;;5.00;99.90;;;;;;5062336;28;20240;-48
2022/02/08 07:21:08;;;;;;;4.22;3.10;;;5.00;99.90;;;;;;5062672;28;20206;-50
2022/02/08 07:23:35;;;;;;;6.65;2.72;;;5.00;99.90;;;;;;5062154;28;20496;-46
2022/02/08 07:26:04;;;;;;;8.55;2.83;;;5.00;99.90;;;;;;5062012;28;20244;-47
2022/02/08 07:28:37;;;;;;;7.20;3.17;;;5.00;99.90;;;;;;5061209;28;20253;-48
2022/02/08 07:31:13;;;;;;;9.20;2.80;;;4.90;99.90;;;;;;5061723;28;20203;-49
2022/02/08 07:33:45;;;;;;;3.97;3.13;;;4.90;99.90;;;;;;5061439;28;20201;-48
2022/02/08 07:36:40;;;;;;;6.30;3.20;;;4.90;99.90;;;;;;5059342;28;20211;-52
2022/02/08 07:39:10;;;;;;;14.20;3.90;;;4.90;99.90;;;;;;5059128;28;20256;-51
2022/02/08 07:41:39;;;;;;;11.38;4.25;;;5.10;99.90;;;;;;5061116;28;20264;-51
2022/02/08 07:44:10;;;;;;;5.10;2.75;;;5.00;99.90;;;;;;5059314;28;20199;-48
2022/02/08 07:46:37;;;;;;;5.82;2.85;;;5.10;99.90;;;;;;5061302;28;20198;-49
2022/02/08 07:49:05;;;;;;;13.07;2.65;;;5.10;99.90;;;;;;5061207;28;20226;-50
2022/02/08 07:51:36;;;;;;;5.15;2.42;;;5.10;99.90;;;;;;5060687;28;20199;-49
2022/02/08 07:54:04;;;;;;;13.60;4.00;;;5.50;99.90;;;;;;5061120;28;20200;-49
2022/02/08 07:56:32;;;;;;;6.13;4.68;;;5.50;99.90;;;;;;5060903;28;20203;-48
2022/02/08 07:59:00;;;;;;;5.00;2.50;;;5.50;99.90;;;;;;5061126;28;20529;-50
2022/02/08 08:01:27;;;;;;;10.38;3.58;;;5.40;99.90;;;;;;5060402;28;20203;-49
2022/02/08 08:03:55;;;;;;;4.32;3.40;;;5.50;99.90;;;;;;5059388;28;20223;-52
2022/02/08 08:06:23;;;;;;;5.32;3.67;;;5.70;99.90;;;;;;5054389;28;20510;-47
2022/02/08 08:08:51;;;;;;;12.25;3.58;;;5.80;99.90;;;;;;5068264;28;20510;-46
2022/02/08 08:11:22;;;;;;;7.47;3.45;;;6.00;99.90;;;;;;5074751;28;20266;-47
2022/02/08 08:16:40;;;;;;;9.32;3.40;;;6.40;99.90;;;;;;5061007;28;20199;-46
2022/02/08 08:19:22;;;;;;;8.05;3.67;;;6.50;99.90;;;;;;5061035;28;20254;-49
2022/02/08 08:21:50;;;;;;;9.40;3.50;;;6.60;99.90;;;;;;5061113;28;20199;-51
2022/02/08 08:24:17;;;;;;;7.35;4.00;;;6.80;99.90;;;;;;5060895;28;20531;-45
2022/02/08 08:26:45;;;;;;;8.23;3.63;;;6.70;99.90;;;;;;5061805;28;20548;-50
2022/02/08 08:29:12;;;;;;;8.20;4.55;;;6.70;99.90;;;;;;5061031;28;20227;-51
2022/02/08 08:31:40;;;;;;;9.35;3.97;;;6.70;99.90;;;;;;5060899;28;20426;-49
2022/02/08 08:34:09;;;;;;;5.68;4.20;;;6.70;99.90;;;;;;5061005;28;20200;-50
2022/02/08 08:36:36;;;;;;;6.22;4.18;;;6.60;99.90;;;;;;5061209;28;20433;-46
2022/02/08 08:39:05;;;;;;;7.90;4.30;;;6.60;99.90;;;;;;5059295;28;20224;-49
2022/02/08 08:41:39;;;;;;;6.13;3.72;;;6.60;99.90;;;;;;5060587;28;20191;-46
2022/02/08 08:52:42;;;;;;;10.73;3.72;;;6.60;99.90;;;;;;4999061;28;20208;-51
2022/02/08 08:55:11;;;;;;;7.43;4.28;;;6.60;99.90;;;;;;4999279;28;20267;-48
2022/02/08 08:57:39;;;;;;;6.97;5.30;;;6.80;99.90;;;;;;5032288;28;20223;-50
2022/02/08 09:00:08;;;;;;;14.60;4.15;;;6.90;99.90;;;;;;5060216;28;20245;-52
2022/02/08 09:02:37;;;;;;;4.35;3.75;;;6.80;99.90;;;;;;5060510;28;20233;-48
2022/02/08 09:05:09;;;;;;;7.65;2.97;;;6.80;99.90;;;;;;5060957;28;20218;-52
2022/02/08 09:07:38;;;;;;;7.53;3.75;;;6.90;99.90;;;;;;5060510;28;20245;-45
2022/02/08 09:10:07;;;;;;;5.35;3.55;;;7.00;99.90;;;;;;5060270;28;20223;-51
2022/02/08 09:13:21;;;;;;;11.70;4.70;;;6.90;99.90;;;;;;5060245;28;20199;-47
2022/02/08 09:23:47;;;;;;;10.80;3.53;;;7.20;99.90;;;;;;5059710;28;20188;-48
2022/02/08 09:26:48;;;;;;;4.15;3.55;;;7.10;99.90;;;;;;5059631;28;20217;-48
2022/02/08 09:32:12;;;;;;;12.68;3.97;;;7.20;99.90;;;;;;5059943;28;20379;-50
2022/02/08 09:34:41;;;;;;;7.63;3.47;;;7.20;99.90;;;;;;5060156;28;20199;-49
2022/02/08 09:37:13;;;;;;;6.70;3.38;;;7.30;99.90;;;;;;5059580;28;20207;-47
2022/02/08 09:39:42;;;;;;;6.20;3.70;;;7.40;99.90;;;;;;5059601;28;20399;-48
2022/02/08 09:42:10;;;;;;;4.60;2.90;;;7.40;99.90;;;;;;5059497;28;20199;-52
2022/02/08 09:44:38;;;;;;;5.18;4.57;;;7.50;99.90;;;;;;5060209;28;20195;-47
2022/02/08 09:47:11;;;;;;;8.93;3.08;;;7.50;99.90;;;;;;5059894;28;20208;-46
2022/02/08 09:49:50;;;;;;;11.02;4.97;;;7.40;99.90;;;;;;5059491;28;20219;-50
2022/02/08 09:52:19;;;;;;;4.68;3.20;;;7.30;99.90;;;;;;5059324;28;20207;-45
2022/02/08 09:54:47;;;;;;;3.78;3.13;;;7.30;99.90;;;;;;5058749;28;20211;-49
2022/02/08 09:57:17;;;;;;;8.00;3.70;;;7.50;99.90;;;;;;5050965;28;20203;-50
2022/02/08 09:59:44;;;;;;;4.43;3.70;;;7.70;99.90;;;;;;5058611;28;20231;-47
2022/02/08 10:02:18;;;;;;;2.80;2.58;;;7.90;99.90;;;;;;5059199;28;20199;-47
2022/02/08 10:04:46;;;;;;;7.07;3.13;;;8.10;99.90;;;;;;5059592;28;20219;-49
2022/02/08 10:07:14;;;;;;;11.50;4.05;;;8.60;99.90;;;;;;5059355;28;20204;-51
2022/02/08 10:09:42;;;;;;;10.40;3.85;;;9.10;99.90;;;;;;5058971;28;20223;-50
2022/02/08 10:12:10;;;;;;;5.53;2.97;;;9.30;99.90;;;;;;5050760;28;20207;-50
2022/02/08 10:23:02;;;;;;;5.82;3.40;;;9.30;99.90;;;;;;5047697;28;20193;-50
2022/02/08 10:25:58;;;;;;;3.90;2.85;;;9.40;99.90;;;;;;5057508;28;20196;-48
2022/02/08 10:28:41;;;;;;;10.05;5.68;;;9.30;99.90;;;;;;5059981;28;20425;-49
2022/02/08 10:39:26;;;;;;;3.75;2.72;;;10.00;99.90;;;;;;5060384;28;20226;-49
2022/02/08 10:41:54;;;;;;;5.57;2.88;;;10.00;99.90;;;;;;5063419;28;20202;-50
2022/02/08 10:44:21;;;;;;;4.95;2.95;;;9.90;99.90;;;;;;5061373;28;20224;-50
2022/02/08 10:46:59;;;;;;;3.60;2.90;;;9.80;99.90;;;;;;5060264;28;20449;-48
2022/02/08 10:49:32;;;;;;;4.68;3.90;;;9.90;99.90;;;;;;5059372;28;20266;-50
2022/02/08 10:52:02;;;;;;;4.20;3.15;;;10.00;99.90;;;;;;5059205;28;20223;-48
2022/02/08 10:54:38;;;;;;;7.78;2.78;;;10.10;99.90;;;;;;5059277;28;20240;-49
2022/02/08 10:57:12;;;;;;;10.73;3.88;;;10.40;99.90;;;;;;5059226;28;20412;-50
2022/02/08 10:59:52;;;;;;;5.18;3.00;;;10.50;99.90;;;;;;5036841;28;20238;-49
2022/02/08 11:02:28;;;;;;;4.07;2.67;;;10.40;99.90;;;;;;5039773;28;20194;-49
2022/02/08 11:05:04;;;;;;;4.13;2.38;;;10.20;99.90;;;;;;5031823;28;20209;-52
2022/02/08 11:18:17;;;;;;;4.72;2.53;;;9.30;99.90;;;;;;5035000;28;20214;-48
2022/02/08 11:21:00;;;;;;;2.25;2.03;;;9.20;99.90;;;;;;5057186;28;20343;-53
2022/02/08 11:23:47;;;;;;;3.25;1.67;;;9.30;99.90;;;;;;5056855;28;20202;-51
2022/02/08 11:26:30;;;;;;;5.70;2.40;;;9.10;99.90;;;;;;5026623;28;20211;-51
2022/02/08 11:29:09;;;;;;;3.33;1.80;;;9.10;99.90;;;;;;5032948;28;20247;-48
2022/02/08 11:31:42;;;;;;;3.38;1.77;;;9.10;99.90;;;;;;5047396;28;20392;-47
2022/02/08 11:45:59;;;;;;;2.45;1.90;;;8.60;99.90;;;;;;5062453;28;20196;-49
2022/02/08 11:51:43;;;;;;;2.17;1.67;;;8.60;99.90;;;;;;5020761;28;20224;-50
2022/02/08 11:54:44;;;;;;;2.78;1.75;;;8.40;99.90;;;;;;5062626;28;20271;-50
2022/02/08 12:03:16;;;;;;;3.00;1.90;;;8.20;99.90;;;;;;5063877;28;20251;-50
2022/02/08 12:06:02;;;;;;;3.10;1.65;;;8.10;99.90;;;;;;5062387;28;20219;-47
2022/02/08 12:08:30;;;;;;;5.78;1.90;;;8.00;99.90;;;;;;5055966;28;20456;-47
2022/02/08 12:11:18;;;;;;;2.53;2.33;;;8.00;99.90;;;;;;5041267;28;20231;-49
2022/02/08 12:33:55;;;;;;;1.40;1.30;;;7.90;99.90;;;;;;5061285;28;20195;-50
2022/02/08 12:55:59;;;;;;;1.90;1.67;;;7.80;99.90;;;;;;5061233;28;20209;-51
2022/02/08 14:02:02;;;;;;;2.65;2.00;;;7.10;99.90;;;;;;5057098;28;20207;-50
2022/02/08 14:07:49;;;;;;;3.15;2.78;;;6.90;99.90;;;;;;5050135;28;20235;-48
2022/02/08 14:13:17;;;;;;;3.50;3.20;;;6.90;99.90;;;;;;5039718;28;20200;-49
2022/02/08 14:15:58;;;;;;;5.65;4.75;;;6.90;99.90;;;;;;5040072;28;20200;-51
2022/02/08 14:18:44;;;;;;;4.57;4.20;;;6.80;99.90;;;;;;5039297;28;20247;-48
2022/02/08 15:08:03;;;;;;;12.00;5.03;;;6.90;99.90;;;;;;5042852;28;20218;-48
2022/02/08 15:10:44;;;;;;;4.80;3.47;;;6.80;99.90;;;;;;5038396;28;20320;-50
2022/02/08 15:13:13;;;;;;;6.88;4.45;;;6.80;99.90;;;;;;5043404;28;20214;-49
2022/02/08 15:16:08;;;;;;;8.25;4.88;;;6.80;99.90;;;;;;5031516;28;20197;-46
2022/02/08 15:18:37;;;;;;;4.90;4.50;;;6.90;99.90;;;;;;5038952;28;20234;-49
2022/02/08 15:21:09;;;;;;;7.63;4.10;;;6.80;99.90;;;;;;5042161;28;20234;-49
2022/02/08 15:23:37;;;;;;;8.25;4.28;;;6.80;99.90;;;;;;5042838;28;20200;-49
2022/02/08 15:26:06;;;;;;;6.25;3.65;;;6.80;99.90;;;;;;5042418;28;20254;-49
2022/02/08 15:28:35;;;;;;;3.85;3.55;;;6.80;99.90;;;;;;5042806;28;20211;-48
2022/02/08 15:31:02;;;;;;;4.70;3.20;;;6.80;99.90;;;;;;5042208;28;20228;-48
2022/02/08 15:33:30;;;;;;;5.70;4.28;;;6.80;99.90;;;;;;5042456;28;20488;-48
2022/02/08 15:35:57;;;;;;;6.75;3.63;;;6.80;99.90;;;;;;5043005;28;20204;-49
2022/02/08 15:38:29;;;;;;;9.57;3.97;;;6.80;99.90;;;;;;5042027;28;20475;-48
2022/02/08 15:40:57;;;;;;;8.18;3.45;;;6.70;99.90;;;;;;5042789;28;20437;-48
2022/02/08 15:43:26;;;;;;;4.25;3.00;;;6.80;99.90;;;;;;5042072;28;20223;-46
2022/02/08 15:46:02;;;;;;;9.48;4.20;;;6.80;99.90;;;;;;5043013;28;20364;-48
2022/02/08 15:48:33;;;;;;;3.78;3.45;;;6.80;99.90;;;;;;5043042;28;20235;-47
2022/02/08 15:53:35;;;;;;;4.07;3.38;;;6.80;99.90;;;;;;5042460;28;20208;-50
2022/02/08 16:01:38;;;;;;;3.88;3.50;;;6.80;99.90;;;;;;5042164;28;20224;-50
2022/02/08 16:07:02;;;;;;;4.90;3.55;;;6.80;99.90;;;;;;5042118;28;20507;-50
2022/02/08 16:27:29;;;;;;;4.25;3.45;;;7.10;99.90;;;;;;5080822;28;20266;-53
2022/02/08 16:46:37;;;;;;;3.40;3.08;;;7.20;99.90;;;;;;5092948;28;20201;-52
2022/02/08 16:57:41;;;;;;;5.60;4.13;;;7.20;99.90;;;;;;5075897;28;20536;-51
2022/02/08 17:00:12;;;;;;;4.68;3.72;;;7.30;99.90;;;;;;5079154;28;20630;-50
2022/02/08 17:02:47;;;;;;;3.80;3.50;;;7.30;99.90;;;;;;5080368;28;20241;-52
2022/02/08 17:05:16;;;;;;;5.53;4.53;;;7.40;99.90;;;;;;5079782;28;20194;-58
2022/02/08 17:07:44;;;;;;;3.28;2.97;;;7.40;99.90;;;;;;5080617;28;20558;-53
2022/02/08 17:10:28;;;;;;;3.50;2.50;;;7.40;99.90;;;;;;5086333;28;20223;-52
2022/02/08 17:13:06;;;;;;;4.25;3.15;;;7.50;99.90;;;;;;5080808;28;20199;-51
2022/02/08 17:46:06;;;;;;;4.40;3.50;;;7.60;99.90;;;;;;5081132;28;20256;-56
2022/02/08 17:48:36;;;;;;;8.25;3.58;;;7.60;99.90;;;;;;5080374;28;20195;-51
2022/02/08 17:51:03;;;;;;;3.78;2.85;;;7.60;99.90;;;;;;5083305;28;20218;-53
2022/02/08 17:53:50;;;;;;;3.80;3.40;;;7.60;99.90;;;;;;5082455;28;20327;-48
2022/02/08 17:56:17;;;;;;;4.15;3.75;;;7.60;99.90;;;;;;5083631;28;20211;-49
2022/02/08 17:58:45;;;;;;;4.03;3.15;;;7.60;99.90;;;;;;5079133;28;20244;-54
2022/02/08 18:01:13;;;;;;;4.00;3.00;;;7.60;99.90;;;;;;5078301;28;20231;-53
2022/02/08 18:03:40;;;;;;;3.83;2.95;;;7.70;99.90;;;;;;5079155;28;20445;-53
2022/02/08 18:06:07;;;;;;;4.57;4.15;;;7.60;99.90;;;;;;5076964;28;20460;-54
2022/02/08 18:08:35;;;;;;;3.00;2.80;;;7.70;99.90;;;;;;5078802;28;20210;-54
2022/02/08 18:11:03;;;;;;;7.40;4.13;;;7.70;99.90;;;;;;5078860;28;20252;-55
2022/02/08 18:13:33;;;;;;;8.60;3.50;;;7.80;99.90;;;;;;5080224;28;20199;-53
2022/02/08 18:16:02;;;;;;;5.70;2.78;;;7.70;99.90;;;;;;5081041;28;20203;-52
2022/02/08 18:18:32;;;;;;;3.78;3.25;;;7.70;99.90;;;;;;5080087;28;20207;-56
2022/02/08 18:28:58;;;;;;;4.70;3.63;;;7.80;99.90;;;;;;5081194;28;20552;-52
2022/02/08 18:56:40;;;;;;;5.55;2.85;;;7.90;99.90;;;;;;5081518;28;20207;-52
2022/02/08 19:13:07;;;;;;;8.70;4.05;;;7.90;99.90;;;;;;5078187;28;20222;-53
2022/02/08 19:16:09;;;;;;;4.88;3.95;;;7.90;99.90;;;;;;5079652;28;20211;-54
2022/02/08 19:18:56;;;;;;;3.95;3.60;;;7.90;99.90;;;;;;5086043;28;20450;-50
2022/02/08 19:23:51;;;;;;;4.20;3.63;;;7.90;99.90;;;;;;5080492;28;20203;-54
2022/02/08 19:26:21;;;;;;;5.10;4.03;;;8.00;99.90;;;;;;5073309;28;20390;-53
2022/02/08 19:28:50;;;;;;;3.35;3.05;;;7.90;99.90;;;;;;5080835;28;20431;-53
2022/02/08 19:31:20;;;;;;;9.75;4.50;;;7.90;99.90;;;;;;5081295;28;20223;-53
2022/02/08 19:33:49;;;;;;;5.78;4.05;;;7.90;99.90;;;;;;5085235;28;20221;-54
2022/02/08 19:36:18;;;;;;;6.00;3.55;;;7.90;99.90;;;;;;5081510;28;20207;-54
2022/02/08 19:38:49;;;;;;;7.20;4.50;;;7.90;99.90;;;;;;5081644;28;20199;-53
2022/02/08 19:41:18;;;;;;;6.85;4.60;;;7.90;99.90;;;;;;5078381;28;20536;-53
2022/02/08 19:43:47;;;;;;;5.65;4.35;;;7.90;99.90;;;;;;5081049;28;20261;-50
2022/02/08 19:46:16;;;;;;;5.90;5.35;;;7.80;99.90;;;;;;5081385;28;20202;-56
2022/02/08 19:48:43;;;;;;;5.03;4.53;;;7.70;99.90;;;;;;5081358;28;20199;-50
2022/02/08 19:51:11;;;;;;;4.40;3.90;;;7.60;99.90;;;;;;5086010;28;20303;-55
2022/02/08 19:53:38;;;;;;;3.90;3.60;;;7.50;99.90;;;;;;5083581;28;20248;-56
2022/02/08 19:58:36;;;;;;;8.85;5.22;;;7.50;99.90;;;;;;5094212;28;20199;-52
2022/02/08 20:01:15;;;;;;;5.72;4.57;;;7.50;99.90;;;;;;5083987;28;20222;-54
2022/02/08 20:03:53;;;;;;;6.40;4.20;;;7.40;99.90;;;;;;5080775;28;20194;-52
2022/02/08 20:06:21;;;;;;;6.75;5.68;;;7.40;99.90;;;;;;5080175;28;20203;-55
2022/02/08 20:08:49;;;;;;;6.40;5.03;;;7.40;99.90;;;;;;5099514;28;20202;-51
2022/02/08 20:11:16;;;;;;;6.97;5.15;;;7.50;99.90;;;;;;5100983;28;20222;-56
2022/02/08 20:13:51;;;;;;;6.90;5.15;;;7.50;99.90;;;;;;5093522;28;20465;-50
2022/02/08 20:16:23;;;;;;;6.30;5.15;;;7.40;99.90;;;;;;5081478;28;20198;-52
2022/02/08 20:18:53;;;;;;;6.63;5.75;;;7.50;99.90;;;;;;5081998;28;20242;-55
2022/02/08 20:21:25;;;;;;;4.28;3.88;;;7.40;99.90;;;;;;5081010;28;20222;-50
2022/02/08 20:23:54;;;;;;;5.07;4.57;;;7.40;99.90;;;;;;5080954;28;20555;-52
2022/02/08 20:26:26;;;;;;;8.27;5.00;;;7.40;99.90;;;;;;5081918;28;20233;-51
2022/02/08 20:28:57;;;;;;;4.85;4.40;;;7.50;99.90;;;;;;5083448;28;20191;-56
2022/02/08 20:31:25;;;;;;;5.10;4.03;;;7.50;99.90;;;;;;5081706;28;20222;-51
2022/02/08 20:33:53;;;;;;;4.47;4.07;;;7.50;99.90;;;;;;5081537;28;20587;-52
2022/02/08 20:36:21;;;;;;;7.70;3.90;;;7.50;99.90;;;;;;5081004;28;20199;-49
2022/02/08 20:38:49;;;;;;;4.80;4.03;;;7.50;99.90;;;;;;5081717;28;20425;-54
2022/02/08 20:41:21;;;;;;;3.63;3.33;;;7.50;99.90;;;;;;5091959;28;20394;-53
2022/02/08 20:43:49;;;;;;;6.10;4.63;;;7.40;99.90;;;;;;5088425;28;20202;-52
2022/02/08 20:46:17;;;;;;;4.72;3.70;;;7.50;99.90;;;;;;5080226;28;20420;-57
2022/02/08 20:48:47;;;;;;;4.65;4.25;;;7.50;99.90;;;;;;5080333;28;20203;-53
2022/02/08 20:51:15;;;;;;;4.75;4.25;;;7.50;99.90;;;;;;5093512;28;20232;-52
2022/02/08 20:53:54;;;;;;;7.70;4.57;;;7.50;99.90;;;;;;5081817;28;20236;-54